createdAt,value
2023-04-19T00:00:46.658Z,3.30
2023-04-19T00:03:14.531Z,3.90
2023-04-19T00:05:41.558Z,3.47
2023-04-19T00:08:08.221Z,2.97
2023-04-19T00:10:39.716Z,3.30
2023-04-19T00:13:06.672Z,3.40
2023-04-19T00:15:35.002Z,3.80
2023-04-19T00:18:01.756Z,3.37
2023-04-19T00:20:28.537Z,3.37
2023-04-19T00:22:55.158Z,3.60
2023-04-19T00:25:21.751Z,3.80
2023-04-19T00:27:48.294Z,3.47
2023-04-19T00:30:14.888Z,3.43
2023-04-19T00:32:41.651Z,3.73
2023-04-19T00:35:08.595Z,3.70
2023-04-19T00:37:35.614Z,3.97
2023-04-19T00:40:02.174Z,3.67
2023-04-19T00:42:28.738Z,3.37
2023-04-19T00:44:55.333Z,3.40
2023-04-19T00:47:21.925Z,4.03
2023-04-19T00:49:48.610Z,3.93
2023-04-19T00:52:15.349Z,3.23
2023-04-19T00:54:45.128Z,3.33
2023-04-19T00:57:11.775Z,3.93
2023-04-19T00:59:39.164Z,3.60
2023-04-19T01:02:07.344Z,3.43
2023-04-19T01:04:34.234Z,3.33
2023-04-19T01:07:02.052Z,3.60
2023-04-19T01:09:28.696Z,3.37
2023-04-19T01:11:55.264Z,3.23
2023-04-19T01:14:21.838Z,3.30
2023-04-19T01:16:48.684Z,2.77
2023-04-19T01:19:16.624Z,3.10
2023-04-19T01:21:43.756Z,3.07
2023-04-19T01:24:10.660Z,2.73
2023-04-19T01:26:37.269Z,2.83
2023-04-19T01:29:03.995Z,2.70
2023-04-19T01:31:30.666Z,2.93
2023-04-19T01:33:57.368Z,2.80
2023-04-19T01:36:24.037Z,2.80
2023-04-19T01:38:50.818Z,2.87
2023-04-19T01:41:17.417Z,3.10
2023-04-19T01:43:44.070Z,2.80
2023-04-19T01:46:10.784Z,2.57
2023-04-19T01:48:37.318Z,2.57
2023-04-19T01:51:04.025Z,3.77
2023-04-19T01:53:30.574Z,3.30
2023-04-19T01:55:57.158Z,2.40
2023-04-19T01:58:23.693Z,2.87
2023-04-19T02:00:50.417Z,2.03
2023-04-19T02:03:17.284Z,2.63
2023-04-19T02:05:44.086Z,1.90
2023-04-19T02:08:10.694Z,2.47
2023-04-19T02:10:37.240Z,2.23
2023-04-19T02:13:03.801Z,2.53
2023-04-19T02:15:30.539Z,2.50
2023-04-19T02:17:57.339Z,2.17
2023-04-19T02:20:24.441Z,2.00
2023-04-19T02:22:51.010Z,2.93
2023-04-19T02:25:19.307Z,2.27
2023-04-19T02:27:45.889Z,2.50
2023-04-19T02:30:12.845Z,2.60
2023-04-19T02:32:39.601Z,2.37
2023-04-19T02:35:06.518Z,2.57
2023-04-19T02:37:33.071Z,3.30
2023-04-19T02:39:59.665Z,2.80
2023-04-19T02:42:26.258Z,2.40
2023-04-19T02:44:52.884Z,2.43
2023-04-19T02:47:19.459Z,2.77
2023-04-19T02:49:46.025Z,2.30
2023-04-19T02:52:12.587Z,2.80
2023-04-19T02:54:39.274Z,2.23
2023-04-19T02:57:05.982Z,2.47
2023-04-19T02:59:32.518Z,2.10
2023-04-19T03:01:59.112Z,2.50
2023-04-19T03:04:25.764Z,2.83
2023-04-19T03:06:53.603Z,2.17
2023-04-19T03:09:20.255Z,2.37
2023-04-19T03:11:46.791Z,1.97
2023-04-19T03:14:13.444Z,2.10
2023-04-19T03:16:40.790Z,2.20
2023-04-19T03:19:07.510Z,2.40
2023-04-19T03:21:34.072Z,1.80
2023-04-19T03:24:01.599Z,2.93
2023-04-19T03:26:28.174Z,2.50
2023-04-19T03:28:54.771Z,2.20
2023-04-19T03:31:21.676Z,1.83
2023-04-19T03:33:48.311Z,2.10
2023-04-19T03:36:15.312Z,2.37
2023-04-19T03:38:41.924Z,2.37
2023-04-19T03:41:18.901Z,1.97
2023-04-19T03:43:46.045Z,2.17
2023-04-19T03:46:12.770Z,2.03
2023-04-19T03:48:39.417Z,2.20
2023-04-19T03:51:06.111Z,2.53
2023-04-19T03:53:32.751Z,2.10
2023-04-19T03:55:59.319Z,1.90
2023-04-19T03:58:25.908Z,2.03
2023-04-19T04:00:53.483Z,1.47
2023-04-19T04:03:20.490Z,2.53
2023-04-19T04:05:47.263Z,1.97
2023-04-19T04:08:13.975Z,2.20
2023-04-19T04:10:40.542Z,2.47
2023-04-19T04:13:07.280Z,1.90
2023-04-19T04:15:33.829Z,1.43
2023-04-19T04:18:00.437Z,1.93
2023-04-19T04:20:27.361Z,1.70
2023-04-19T04:22:54.006Z,2.13
2023-04-19T04:25:22.797Z,2.03
2023-04-19T04:27:53.016Z,1.40
2023-04-19T04:30:19.650Z,2.07
2023-04-19T04:32:47.334Z,1.63
2023-04-19T04:35:14.120Z,1.70
2023-04-19T04:37:40.734Z,2.30
2023-04-19T04:40:09.027Z,2.13
2023-04-19T04:42:37.485Z,2.00
2023-04-19T04:45:04.656Z,2.37
2023-04-19T04:47:34.842Z,2.63
2023-04-19T04:50:02.441Z,2.20
2023-04-19T04:52:29.488Z,2.47
2023-04-19T04:54:56.153Z,2.17
2023-04-19T04:57:22.759Z,1.67
2023-04-19T04:59:49.311Z,2.13
2023-04-19T05:02:16.823Z,1.87
2023-04-19T05:04:44.070Z,2.10
2023-04-19T05:07:10.811Z,2.10
2023-04-19T05:09:37.359Z,2.07
2023-04-19T05:12:04.292Z,1.63
2023-04-19T05:14:30.839Z,1.60
2023-04-19T05:16:57.408Z,2.00
2023-04-19T05:19:24.011Z,1.73
2023-04-19T05:21:50.716Z,1.43
2023-04-19T05:24:17.566Z,1.70
2023-04-19T05:26:44.438Z,1.30
2023-04-19T05:29:11.645Z,2.00
2023-04-19T05:31:38.349Z,2.33
2023-04-19T05:34:04.921Z,1.73
2023-04-19T05:36:32.107Z,2.27
2023-04-19T05:38:58.656Z,2.30
2023-04-19T05:41:25.787Z,2.30
2023-04-19T05:43:52.360Z,1.90
2023-04-19T05:46:19.241Z,2.03
2023-04-19T05:48:46.319Z,1.57
2023-04-19T05:51:14.302Z,1.80
2023-04-19T05:53:41.027Z,1.80
2023-04-19T05:56:07.694Z,1.90
2023-04-19T05:58:34.326Z,1.90
2023-04-19T06:01:01.839Z,1.70
2023-04-19T06:03:31.298Z,1.93
2023-04-19T06:05:59.605Z,1.50
2023-04-19T06:08:26.254Z,1.37
2023-04-19T06:10:57.017Z,1.73
2023-04-19T06:13:26.677Z,1.70
2023-04-19T06:15:53.615Z,1.77
2023-04-19T06:18:20.499Z,1.60
2023-04-19T06:20:47.460Z,1.90
2023-04-19T06:23:15.290Z,1.80
2023-04-19T06:25:42.078Z,1.80
2023-04-19T06:28:08.741Z,2.10
2023-04-19T06:30:35.514Z,2.07
2023-04-19T06:33:02.106Z,2.33
2023-04-19T06:35:28.693Z,1.60
2023-04-19T06:37:55.263Z,1.70
2023-04-19T06:40:21.973Z,1.53
2023-04-19T06:42:48.526Z,1.87
2023-04-19T06:45:16.031Z,1.80
2023-04-19T06:47:42.744Z,1.60
2023-04-19T06:50:10.734Z,1.90
2023-04-19T06:52:37.821Z,1.60
2023-04-19T06:55:05.685Z,1.77
2023-04-19T06:57:32.546Z,1.80
2023-04-19T06:59:59.506Z,1.37
2023-04-19T07:02:26.265Z,1.47
2023-04-19T07:04:53.129Z,1.67
2023-04-19T07:07:19.821Z,1.50
2023-04-19T07:09:46.613Z,1.70
2023-04-19T07:12:13.210Z,1.60
2023-04-19T07:14:39.760Z,1.25
2023-04-19T07:17:06.349Z,1.63
2023-04-19T07:19:33.049Z,1.33
2023-04-19T07:21:59.842Z,1.30
2023-04-19T07:24:29.565Z,1.45
2023-04-19T07:26:56.201Z,1.48
2023-04-19T07:29:23.064Z,1.40
2023-04-19T07:31:49.637Z,1.50
2023-04-19T07:34:16.837Z,1.30
2023-04-19T07:36:43.856Z,1.25
2023-04-19T07:39:11.118Z,1.58
2023-04-19T07:41:38.381Z,1.40
2023-04-19T07:44:05.406Z,1.70
2023-04-19T07:46:32.073Z,1.35
2023-04-19T07:48:58.893Z,1.50
2023-04-19T07:51:26.363Z,1.60
2023-04-19T07:53:52.951Z,1.40
2023-04-19T07:56:20.134Z,1.27
2023-04-19T07:58:50.828Z,1.40
2023-04-19T08:01:23.577Z,1.15
2023-04-19T08:03:50.402Z,1.40
2023-04-19T08:06:17.961Z,1.58
2023-04-19T08:08:44.584Z,1.17
2023-04-19T08:11:11.175Z,1.17
2023-04-19T08:13:38.727Z,1.15
2023-04-19T08:18:36.364Z,1.20
2023-04-19T08:21:03.206Z,1.10
2023-04-19T08:23:41.237Z,1.15
2023-04-19T08:26:14.206Z,1.25
2023-04-19T08:28:40.851Z,1.10
2023-04-19T08:31:07.816Z,1.20
2023-04-19T08:33:34.434Z,1.15
2023-04-19T08:36:00.992Z,1.10
2023-04-19T08:38:27.643Z,1.05
2023-04-19T08:40:57.592Z,1.05
2023-04-19T08:43:25.985Z,1.15
2023-04-19T08:45:53.300Z,0.88
2023-04-19T08:48:21.583Z,1.40
2023-04-19T08:51:04.481Z,1.05
2023-04-19T08:53:34.293Z,1.05
2023-04-19T09:01:04.832Z,1.10
2023-04-19T09:03:38.596Z,1.10
2023-04-19T09:06:14.569Z,1.10
2023-04-19T09:08:41.775Z,1.20
2023-04-19T09:11:08.650Z,1.00
2023-04-19T09:13:40.366Z,0.90
2023-04-19T09:16:09.898Z,1.25
2023-04-19T09:19:23.412Z,1.30
2023-04-19T09:21:45.454Z,1.30
2023-04-19T09:24:12.120Z,1.10
2023-04-19T09:26:38.755Z,1.10
2023-04-19T09:29:06.702Z,1.13
2023-04-19T09:31:51.052Z,1.20
2023-04-19T09:34:19.533Z,1.15
2023-04-19T09:36:46.951Z,1.50
2023-04-19T09:39:14.894Z,1.50
2023-04-19T09:41:53.013Z,1.38
2023-04-19T09:46:53.560Z,1.40
2023-04-19T09:49:33.734Z,1.33
2023-04-19T09:52:10.094Z,1.40
2023-04-19T09:54:37.515Z,1.02
2023-04-19T09:57:04.525Z,1.10
2023-04-19T09:59:31.108Z,1.33
2023-04-19T10:02:00.686Z,1.40
2023-04-19T10:04:38.544Z,1.55
2023-04-19T10:14:47.871Z,1.40
2023-04-19T10:17:15.228Z,1.40
2023-04-19T10:19:42.989Z,1.60
2023-04-19T10:22:10.112Z,1.30
2023-04-19T10:24:36.692Z,1.30
2023-04-19T10:27:03.501Z,1.38
2023-04-19T10:29:55.133Z,1.50
2023-04-19T10:32:22.342Z,1.50
2023-04-19T10:34:48.997Z,1.60
2023-04-19T10:37:16.106Z,1.42
2023-04-19T10:39:45.794Z,1.40
2023-04-19T10:42:13.098Z,1.60
2023-04-19T10:44:39.686Z,1.70
2023-04-19T10:47:06.360Z,1.70
2023-04-19T10:49:45.073Z,1.60
2023-04-19T10:52:29.477Z,1.67
2023-04-19T10:54:56.841Z,1.25
2023-04-19T10:57:25.150Z,1.80
2023-04-19T11:00:21.407Z,1.60
2023-04-19T11:02:48.078Z,1.40
2023-04-19T11:05:15.036Z,1.40
2023-04-19T11:07:42.388Z,1.63
2023-04-19T11:10:10.255Z,1.23
2023-04-19T11:12:37.322Z,1.40
2023-04-19T11:15:06.115Z,1.33
2023-04-19T11:17:32.820Z,1.38
2023-04-19T11:20:08.380Z,1.73
2023-04-19T11:22:36.276Z,1.27
2023-04-19T11:25:06.040Z,1.50
2023-04-19T11:27:33.681Z,1.40
2023-04-19T11:30:10.284Z,1.40
2023-04-19T11:32:37.629Z,1.20
2023-04-19T11:35:08.803Z,1.30
2023-04-19T11:37:36.568Z,1.23
2023-04-19T11:40:05.395Z,1.40
2023-04-19T11:42:32.809Z,1.38
2023-04-19T11:44:59.877Z,1.50
2023-04-19T11:47:27.450Z,1.27
2023-04-19T11:49:57.263Z,1.15
2023-04-19T11:52:25.684Z,1.17
2023-04-19T11:54:53.069Z,1.30
2023-04-19T11:57:30.573Z,1.38
2023-04-19T12:00:11.751Z,1.20
2023-04-19T12:02:40.826Z,2.65
2023-04-19T12:05:16.863Z,1.67
2023-04-19T12:08:03.839Z,2.22
2023-04-19T12:10:34.866Z,1.50
2023-04-19T12:13:01.825Z,1.42
2023-04-19T12:15:45.244Z,1.50
2023-04-19T12:18:12.340Z,1.10
2023-04-19T12:20:45.801Z,1.30
2023-04-19T12:23:15.921Z,1.20
2023-04-19T12:25:44.126Z,1.60
2023-04-19T12:28:10.864Z,1.30
2023-04-19T12:30:38.022Z,1.55
2023-04-19T12:33:06.473Z,1.20
2023-04-19T12:35:33.903Z,1.13
2023-04-19T12:38:00.921Z,1.33
2023-04-19T12:40:27.870Z,1.20
2023-04-19T12:42:54.754Z,1.17
2023-04-19T12:45:21.594Z,1.08
2023-04-19T12:47:48.932Z,1.10
2023-04-19T12:50:16.301Z,1.30
2023-04-19T12:52:44.425Z,1.50
2023-04-19T12:55:11.106Z,1.20
2023-04-19T12:57:37.723Z,1.52
2023-04-19T13:00:06.102Z,1.50
2023-04-19T13:02:34.515Z,1.30
2023-04-19T13:05:01.393Z,1.40
2023-04-19T13:07:28.609Z,1.50
2023-04-19T13:09:56.676Z,1.17
2023-04-19T13:12:23.936Z,1.50
2023-04-19T13:14:52.075Z,1.30
2023-04-19T13:17:20.047Z,1.73
2023-04-19T13:19:47.330Z,1.20
2023-04-19T13:22:14.045Z,1.40
2023-04-19T13:24:40.660Z,1.40
2023-04-19T13:27:08.715Z,1.30
2023-04-19T13:29:35.807Z,1.17
2023-04-19T13:32:02.564Z,1.10
2023-04-19T13:34:29.296Z,1.13
2023-04-19T13:36:57.439Z,1.40
2023-04-19T13:39:24.057Z,1.20
2023-04-19T13:41:50.770Z,1.10
2023-04-19T13:44:17.591Z,1.40
2023-04-19T13:46:44.778Z,1.42
2023-04-19T13:49:11.449Z,1.40
2023-04-19T13:51:48.913Z,1.40
2023-04-19T13:54:17.807Z,1.30
2023-04-19T13:56:45.188Z,1.02
2023-04-19T13:59:11.814Z,1.40
2023-04-19T14:01:38.678Z,1.40
2023-04-19T14:04:05.885Z,1.50
2023-04-19T14:06:32.972Z,1.40
2023-04-19T14:08:59.653Z,1.63
2023-04-19T14:11:26.290Z,1.70
2023-04-19T14:13:53.448Z,1.60
2023-04-19T14:16:20.973Z,1.52
2023-04-19T14:18:47.851Z,1.75
2023-04-19T14:21:14.670Z,1.70
2023-04-19T14:23:41.271Z,1.90
2023-04-19T14:26:07.866Z,1.63
2023-04-19T14:28:34.453Z,1.87
2023-04-19T14:31:01.108Z,2.07
2023-04-19T14:33:27.805Z,1.77
2023-04-19T14:35:54.462Z,1.70
2023-04-19T14:38:21.132Z,2.00
2023-04-19T14:40:48.126Z,1.73
2023-04-19T14:43:16.125Z,1.80
2023-04-19T14:45:42.741Z,1.70
2023-04-19T14:48:09.487Z,1.70
2023-04-19T14:50:36.138Z,1.50
2023-04-19T14:53:02.745Z,1.50
2023-04-19T14:55:29.331Z,1.70
2023-04-19T14:57:55.903Z,1.57
2023-04-19T15:00:22.491Z,1.90
2023-04-19T15:02:49.203Z,1.87
2023-04-19T15:05:16.200Z,1.67
2023-04-19T15:07:42.959Z,1.90
2023-04-19T15:10:10.136Z,1.70
2023-04-19T15:12:36.728Z,1.80
2023-04-19T15:15:03.769Z,1.60
2023-04-19T15:17:30.454Z,1.70
2023-04-19T15:19:58.108Z,1.10
2023-04-19T15:22:24.851Z,1.60
2023-04-19T15:24:51.827Z,1.67
2023-04-19T15:27:18.382Z,1.70
2023-04-19T15:29:47.302Z,1.80
2023-04-19T15:32:14.488Z,1.30
2023-04-19T15:34:41.042Z,1.37
2023-04-19T15:37:08.495Z,1.70
2023-04-19T15:39:35.218Z,1.60
2023-04-19T15:42:01.996Z,1.43
2023-04-19T15:44:28.739Z,1.27
2023-04-19T15:46:56.115Z,1.55
2023-04-19T15:49:22.830Z,1.70
2023-04-19T15:51:49.398Z,1.30
2023-04-19T15:54:16.193Z,1.60
2023-04-19T15:56:44.205Z,1.30
2023-04-19T15:59:10.840Z,1.80
2023-04-19T16:01:37.550Z,1.47
2023-04-19T16:04:04.442Z,1.33
2023-04-19T16:06:31.810Z,1.33
2023-04-19T16:08:58.357Z,1.23
2023-04-19T16:11:25.155Z,1.43
2023-04-19T16:13:51.772Z,1.30
2023-04-19T16:16:18.408Z,1.50
2023-04-19T16:18:45.041Z,1.40
2023-04-19T16:21:11.655Z,1.40
2023-04-19T16:23:38.263Z,1.40
2023-04-19T16:26:04.927Z,1.70
2023-04-19T16:28:31.506Z,1.20
2023-04-19T16:30:58.067Z,1.17
2023-04-19T16:33:24.658Z,1.57
2023-04-19T16:35:51.251Z,1.20
2023-04-19T16:38:17.818Z,1.40
2023-04-19T16:40:48.477Z,1.43
2023-04-19T16:43:15.122Z,1.17
2023-04-19T16:45:42.716Z,1.43
2023-04-19T16:48:09.384Z,1.27
2023-04-19T16:50:35.996Z,1.20
2023-04-19T16:53:02.558Z,1.60
2023-04-19T16:55:29.423Z,1.43
2023-04-19T16:57:56.070Z,1.50
2023-04-19T17:00:23.185Z,1.27
2023-04-19T17:02:49.890Z,1.13
2023-04-19T17:05:16.633Z,1.37
2023-04-19T17:07:46.317Z,1.10
2023-04-19T17:10:13.153Z,1.10
2023-04-19T17:12:41.006Z,1.40
2023-04-19T17:15:07.985Z,1.37
2023-04-19T17:17:34.638Z,1.17
2023-04-19T17:20:01.491Z,1.40
2023-04-19T17:22:28.091Z,0.90
2023-04-19T17:24:57.165Z,0.90
2023-04-19T17:27:23.792Z,1.00
2023-04-19T17:29:50.402Z,1.27
2023-04-19T17:32:17.043Z,1.30
2023-04-19T17:34:43.583Z,1.40
2023-04-19T17:37:10.216Z,1.43
2023-04-19T17:39:36.798Z,1.03
2023-04-19T17:42:03.424Z,0.93
2023-04-19T17:44:30.045Z,1.00
2023-04-19T17:46:57.100Z,0.97
2023-04-19T17:49:23.898Z,0.90
2023-04-19T17:51:50.501Z,0.90
2023-04-19T17:54:17.198Z,1.00
2023-04-19T17:56:43.787Z,1.00
2023-04-19T17:59:10.368Z,1.03
2023-04-19T18:01:37.764Z,1.17
2023-04-19T18:04:04.711Z,1.30
2023-04-19T18:06:31.724Z,1.27
2023-04-19T18:08:58.538Z,1.07
2023-04-19T18:11:27.711Z,0.87
2023-04-19T18:13:55.144Z,0.70
2023-04-19T18:16:21.875Z,1.10
2023-04-19T18:18:48.546Z,0.80
2023-04-19T18:21:15.322Z,0.90
2023-04-19T18:23:41.951Z,1.00
2023-04-19T18:26:08.546Z,0.80
2023-04-19T18:28:36.629Z,1.10
2023-04-19T18:31:04.666Z,1.30
2023-04-19T18:33:31.287Z,1.43
2023-04-19T18:35:58.395Z,0.93
2023-04-19T18:38:25.026Z,1.00
2023-04-19T18:40:51.632Z,0.90
2023-04-19T18:43:18.208Z,1.13
2023-04-19T18:45:44.829Z,1.20
2023-04-19T18:48:11.586Z,1.10
2023-04-19T18:50:38.338Z,1.13
2023-04-19T18:53:05.048Z,1.00
2023-04-19T18:55:31.672Z,1.10
2023-04-19T18:58:01.080Z,1.03
2023-04-19T19:00:28.248Z,1.27
2023-04-19T19:02:57.028Z,1.30
2023-04-19T19:05:24.269Z,1.20
2023-04-19T19:07:51.362Z,1.03
2023-04-19T19:10:21.639Z,1.17
2023-04-19T19:12:49.598Z,1.17
2023-04-19T19:15:16.723Z,1.00
2023-04-19T19:17:43.595Z,0.90
2023-04-19T19:20:10.733Z,1.13
2023-04-19T19:22:37.500Z,1.00
2023-04-19T19:25:04.587Z,0.97
2023-04-19T19:27:31.199Z,0.80
2023-04-19T19:29:58.716Z,1.00
2023-04-19T19:32:25.624Z,0.97
2023-04-19T19:34:56.551Z,1.07
2023-04-19T19:37:27.691Z,1.20
2023-04-19T19:39:56.459Z,0.80
2023-04-19T19:42:23.596Z,1.07
2023-04-19T19:44:54.519Z,1.13
2023-04-19T19:47:22.078Z,1.10
2023-04-19T19:50:20.332Z,1.10
2023-04-19T19:52:35.898Z,1.10
2023-04-19T19:55:02.580Z,1.10
2023-04-19T19:58:20.560Z,1.13
2023-04-19T20:00:41.886Z,0.80
2023-04-19T20:03:06.706Z,0.90
2023-04-19T20:05:34.097Z,0.80
2023-04-19T20:08:10.380Z,1.07
2023-04-19T20:10:42.015Z,1.07
2023-04-19T20:13:09.188Z,0.90
2023-04-19T20:15:37.501Z,1.13
2023-04-19T20:18:04.701Z,1.63
2023-04-19T20:20:31.815Z,1.00
2023-04-19T20:22:58.388Z,0.80
2023-04-19T20:25:25.176Z,0.93
2023-04-19T20:27:51.737Z,1.10
2023-04-19T20:30:18.349Z,1.00
2023-04-19T20:32:45.133Z,1.20
2023-04-19T20:35:14.497Z,1.30
2023-04-19T20:37:41.204Z,1.10
2023-04-19T20:40:11.952Z,0.90
2023-04-19T20:42:38.684Z,1.10
2023-04-19T20:45:06.871Z,1.53
2023-04-19T20:47:33.694Z,1.53
2023-04-19T20:50:00.411Z,0.93
2023-04-19T20:52:27.003Z,1.17
2023-04-19T20:54:55.482Z,1.00
2023-04-19T20:57:22.232Z,1.20
2023-04-19T20:59:49.013Z,1.00
2023-04-19T21:02:15.805Z,1.60
2023-04-19T21:04:42.540Z,0.80
2023-04-19T21:07:09.629Z,1.30
2023-04-19T21:09:36.346Z,1.40
2023-04-19T21:12:03.156Z,1.10
2023-04-19T21:14:32.824Z,1.13
2023-04-19T21:17:03.165Z,0.90
2023-04-19T21:19:30.071Z,1.37
2023-04-19T21:21:56.655Z,0.97
2023-04-19T21:24:23.258Z,1.27
2023-04-19T21:26:49.830Z,1.30
2023-04-19T21:29:16.595Z,1.30
2023-04-19T21:31:43.532Z,0.80
2023-04-19T21:34:10.309Z,1.37
2023-04-19T21:36:36.941Z,0.80
2023-04-19T21:39:04.037Z,1.03
2023-04-19T21:41:30.633Z,1.27
2023-04-19T21:43:57.200Z,1.03
2023-04-19T21:46:23.856Z,1.43
2023-04-19T21:48:50.534Z,1.53
2023-04-19T21:51:17.181Z,1.47
2023-04-19T21:53:43.856Z,1.10
2023-04-19T21:56:11.556Z,1.20
2023-04-19T21:58:38.206Z,1.00
2023-04-19T22:01:05.109Z,1.10
2023-04-19T22:03:32.779Z,1.40
2023-04-19T22:06:02.096Z,1.23
2023-04-19T22:08:31.553Z,1.27
2023-04-19T22:11:00.239Z,1.40
2023-04-19T22:13:28.202Z,1.30
2023-04-19T22:15:56.923Z,1.33
2023-04-19T22:18:23.761Z,1.37
2023-04-19T22:20:51.796Z,1.30
2023-04-19T22:23:18.533Z,1.53
2023-04-19T22:25:45.320Z,1.60
2023-04-19T22:28:11.921Z,1.37
2023-04-19T22:30:38.539Z,1.27
2023-04-19T22:33:05.284Z,1.60
2023-04-19T22:35:31.927Z,1.20
2023-04-19T22:37:58.503Z,1.27
2023-04-19T22:40:25.296Z,1.27
2023-04-19T22:42:51.897Z,1.47
2023-04-19T22:45:18.552Z,1.30
2023-04-19T22:47:45.300Z,1.67
2023-04-19T22:50:11.958Z,1.63
2023-04-19T22:52:38.603Z,1.60
2023-04-19T22:55:06.820Z,1.43
2023-04-19T22:57:33.425Z,1.40
2023-04-19T23:00:00.369Z,1.20
2023-04-19T23:02:26.989Z,1.23
2023-04-19T23:04:54.251Z,1.47
2023-04-19T23:07:21.814Z,1.40
2023-04-19T23:09:49.671Z,1.70
2023-04-19T23:12:17.300Z,1.60
2023-04-19T23:14:43.952Z,1.17
2023-04-19T23:17:10.576Z,1.37
2023-04-19T23:19:38.677Z,1.37
2023-04-19T23:22:05.764Z,1.30
2023-04-19T23:24:32.391Z,1.47
2023-04-19T23:26:59.001Z,1.17
2023-04-19T23:29:25.588Z,1.20
2023-04-19T23:31:52.539Z,1.20
2023-04-19T23:34:19.502Z,1.37
2023-04-19T23:36:46.121Z,1.10
2023-04-19T23:39:12.906Z,1.57
2023-04-19T23:41:39.613Z,1.30
2023-04-19T23:44:06.357Z,1.17
2023-04-19T23:46:33.079Z,1.00
2023-04-19T23:48:59.726Z,1.30
2023-04-19T23:51:26.352Z,1.13
2023-04-19T23:53:52.948Z,1.10
2023-04-19T23:56:19.563Z,1.30
2023-04-19T23:58:46.239Z,1.17
